Macon, Virginia
Current Conditions -  °F | °C
As of 5:55 PM on Friday 28 Nov 2014 (Local Time) from KW81 Reporting Station
Clear Clear  
Wind Chill: 32°   Ceiling: Unl
Heat Index: 32°   Visibility: 10mi
Dew Point: 24°   Wind: 0mph
Humidity: 74%   Direction: NA
Pressure: 30.27"   Gusts: NA
Location:  37.52°N, 77.96°W
Report Text: KW81 282255Z AUTO 00000KT 10SM CLR 00/M04 A3027 RMK AO1 T00001042
Loading
Personal Weather Stations






























Interactive Weather Map New forecast layout! Learn more

10-Day Weather Forecast

Advertisements
Track Severe Weather on mobile